sensor_id;sensor_type;location;lat;lon;timestamp;pressure;altitude;pressure_sealevel;temperature;humidity
29433;BME280;16405;53.964;13.448;2022-07-30T00:00:48;101471.03;;;16.23;100.00
29433;BME280;16405;53.964;13.448;2022-07-30T00:03:14;101469.56;;;16.17;100.00
29433;BME280;16405;53.964;13.448;2022-07-30T00:05:40;101472.41;;;16.14;100.00
29433;BME280;16405;53.964;13.448;2022-07-30T00:08:05;101475.34;;;16.10;100.00
29433;BME280;16405;53.964;13.448;2022-07-30T00:10:31;101474.66;;;16.06;100.00
29433;BME280;16405;53.964;13.448;2022-07-30T00:13:02;101469.34;;;16.06;100.00
29433;BME280;16405;53.964;13.448;2022-07-30T00:15:27;101472.34;;;16.00;100.00
29433;BME280;16405;53.964;13.448;2022-07-30T00:17:53;101466.97;;;16.02;100.00
29433;BME280;16405;53.964;13.448;2022-07-30T00:20:19;101471.22;;;16.04;100.00
29433;BME280;16405;53.964;13.448;2022-07-30T00:22:45;101467.22;;;15.97;100.00
29433;BME280;16405;53.964;13.448;2022-07-30T00:25:11;101464.56;;;15.97;100.00
29433;BME280;16405;53.964;13.448;2022-07-30T00:27:37;101464.75;;;15.94;100.00
29433;BME280;16405;53.964;13.448;2022-07-30T00:30:06;101454.22;;;15.92;100.00
29433;BME280;16405;53.964;13.448;2022-07-30T00:32:32;101453.38;;;15.92;100.00
29433;BME280;16405;53.964;13.448;2022-07-30T00:34:58;101457.53;;;15.96;100.00
29433;BME280;16405;53.964;13.448;2022-07-30T00:37:24;101455.31;;;15.88;100.00
29433;BME280;16405;53.964;13.448;2022-07-30T00:39:49;101452.94;;;15.84;100.00
29433;BME280;16405;53.964;13.448;2022-07-30T00:42:15;101453.22;;;15.79;100.00
29433;BME280;16405;53.964;13.448;2022-07-30T00:44:45;101455.16;;;15.75;100.00
29433;BME280;16405;53.964;13.448;2022-07-30T00:47:10;101453.16;;;15.63;100.00
29433;BME280;16405;53.964;13.448;2022-07-30T00:49:36;101445.66;;;15.55;100.00
29433;BME280;16405;53.964;13.448;2022-07-30T00:52:02;101446.69;;;15.53;100.00
29433;BME280;16405;53.964;13.448;2022-07-30T00:54:28;101441.78;;;15.45;100.00
29433;BME280;16405;53.964;13.448;2022-07-30T00:56:53;101442.06;;;15.41;100.00
29433;BME280;16405;53.964;13.448;2022-07-30T00:59:19;101441.53;;;15.34;100.00
29433;BME280;16405;53.964;13.448;2022-07-30T01:01:48;101434.69;;;15.30;100.00
29433;BME280;16405;53.964;13.448;2022-07-30T01:04:14;101437.16;;;15.33;100.00
29433;BME280;16405;53.964;13.448;2022-07-30T01:06:39;101435.53;;;15.30;100.00
29433;BME280;16405;53.964;13.448;2022-07-30T01:09:06;101427.56;;;15.14;100.00
29433;BME280;16405;53.964;13.448;2022-07-30T01:11:38;101420.47;;;15.15;100.00
29433;BME280;16405;53.964;13.448;2022-07-30T01:14:08;101425.75;;;15.15;100.00
29433;BME280;16405;53.964;13.448;2022-07-30T01:16:36;101431.25;;;15.12;100.00
29433;BME280;16405;53.964;13.448;2022-07-30T01:19:11;101424.22;;;15.11;100.00
29433;BME280;16405;53.964;13.448;2022-07-30T01:25:08;101426.16;;;15.07;100.00
29433;BME280;16405;53.964;13.448;2022-07-30T01:27:47;101416.84;;;15.00;100.00
29433;BME280;16405;53.964;13.448;2022-07-30T01:30:20;101418.78;;;14.96;100.00
29433;BME280;16405;53.964;13.448;2022-07-30T01:32:48;101411.09;;;14.92;100.00
29433;BME280;16405;53.964;13.448;2022-07-30T01:35:17;101415.53;;;14.91;100.00
29433;BME280;16405;53.964;13.448;2022-07-30T01:37:51;101414.78;;;14.89;100.00
29433;BME280;16405;53.964;13.448;2022-07-30T01:40:18;101406.28;;;14.83;100.00
29433;BME280;16405;53.964;13.448;2022-07-30T01:42:47;101416.19;;;14.79;100.00
29433;BME280;16405;53.964;13.448;2022-07-30T01:45:23;101409.25;;;14.76;100.00
29433;BME280;16405;53.964;13.448;2022-07-30T01:47:59;101413.91;;;14.73;100.00
29433;BME280;16405;53.964;13.448;2022-07-30T01:50:26;101400.78;;;14.70;100.00
29433;BME280;16405;53.964;13.448;2022-07-30T01:52:54;101400.09;;;14.66;100.00
29433;BME280;16405;53.964;13.448;2022-07-30T01:55:36;101396.06;;;14.59;100.00
29433;BME280;16405;53.964;13.448;2022-07-30T01:58:06;101398.91;;;14.54;100.00
29433;BME280;16405;53.964;13.448;2022-07-30T02:00:38;101401.75;;;14.51;100.00
29433;BME280;16405;53.964;13.448;2022-07-30T02:03:09;101396.81;;;14.44;100.00
29433;BME280;16405;53.964;13.448;2022-07-30T02:05:36;101408.44;;;14.41;100.00
29433;BME280;16405;53.964;13.448;2022-07-30T02:11:03;101401.28;;;14.26;100.00
29433;BME280;16405;53.964;13.448;2022-07-30T02:13:49;101406.13;;;14.18;100.00
29433;BME280;16405;53.964;13.448;2022-07-30T02:16:28;101406.50;;;14.10;100.00
29433;BME280;16405;53.964;13.448;2022-07-30T02:19:01;101405.88;;;14.05;100.00
29433;BME280;16405;53.964;13.448;2022-07-30T02:21:32;101409.69;;;13.99;100.00
29433;BME280;16405;53.964;13.448;2022-07-30T02:23:59;101415.16;;;13.96;100.00
29433;BME280;16405;53.964;13.448;2022-07-30T02:26:28;101405.81;;;13.89;100.00
29433;BME280;16405;53.964;13.448;2022-07-30T02:28:58;101407.91;;;13.82;100.00
29433;BME280;16405;53.964;13.448;2022-07-30T02:31:27;101419.75;;;13.73;100.00
29433;BME280;16405;53.964;13.448;2022-07-30T02:33:58;101417.34;;;13.69;100.00
29433;BME280;16405;53.964;13.448;2022-07-30T02:36:30;101410.72;;;13.60;100.00
29433;BME280;16405;53.964;13.448;2022-07-30T02:38:58;101414.44;;;13.56;100.00
29433;BME280;16405;53.964;13.448;2022-07-30T02:41:27;101416.28;;;13.54;100.00
29433;BME280;16405;53.964;13.448;2022-07-30T02:43:58;101416.63;;;13.48;100.00
29433;BME280;16405;53.964;13.448;2022-07-30T02:46:25;101417.59;;;13.45;100.00
29433;BME280;16405;53.964;13.448;2022-07-30T02:48:53;101417.91;;;13.39;100.00
29433;BME280;16405;53.964;13.448;2022-07-30T02:51:23;101417.25;;;13.34;100.00
29433;BME280;16405;53.964;13.448;2022-07-30T02:53:52;101415.78;;;13.28;100.00
29433;BME280;16405;53.964;13.448;2022-07-30T02:56:20;101413.13;;;13.28;100.00
29433;BME280;16405;53.964;13.448;2022-07-30T02:58:48;101417.47;;;13.29;100.00
29433;BME280;16405;53.964;13.448;2022-07-30T03:01:17;101412.31;;;13.26;100.00
29433;BME280;16405;53.964;13.448;2022-07-30T03:03:44;101416.16;;;13.19;100.00
29433;BME280;16405;53.964;13.448;2022-07-30T03:06:13;101416.31;;;13.16;100.00
29433;BME280;16405;53.964;13.448;2022-07-30T03:08:42;101410.84;;;13.19;100.00
29433;BME280;16405;53.964;13.448;2022-07-30T03:11:12;101412.59;;;13.20;100.00
29433;BME280;16405;53.964;13.448;2022-07-30T03:13:38;101415.88;;;13.25;100.00
29433;BME280;16405;53.964;13.448;2022-07-30T03:16:11;101416.66;;;13.27;100.00
29433;BME280;16405;53.964;13.448;2022-07-30T03:18:40;101424.66;;;13.26;100.00
29433;BME280;16405;53.964;13.448;2022-07-30T03:21:09;101428.19;;;13.26;100.00
29433;BME280;16405;53.964;13.448;2022-07-30T03:23:39;101427.28;;;13.26;100.00
29433;BME280;16405;53.964;13.448;2022-07-30T03:26:08;101423.72;;;13.28;100.00
29433;BME280;16405;53.964;13.448;2022-07-30T03:28:37;101423.47;;;13.33;100.00
29433;BME280;16405;53.964;13.448;2022-07-30T03:31:14;101426.97;;;13.33;100.00
29433;BME280;16405;53.964;13.448;2022-07-30T03:33:41;101433.06;;;13.36;100.00
29433;BME280;16405;53.964;13.448;2022-07-30T03:36:09;101421.41;;;13.40;100.00
29433;BME280;16405;53.964;13.448;2022-07-30T03:38:40;101423.88;;;13.43;100.00
29433;BME280;16405;53.964;13.448;2022-07-30T03:41:07;101416.38;;;13.52;100.00
29433;BME280;16405;53.964;13.448;2022-07-30T03:43:34;101424.94;;;13.58;100.00
29433;BME280;16405;53.964;13.448;2022-07-30T03:46:04;101422.81;;;13.66;100.00
29433;BME280;16405;53.964;13.448;2022-07-30T03:48:33;101420.72;;;13.72;100.00
29433;BME280;16405;53.964;13.448;2022-07-30T03:51:02;101417.53;;;13.83;100.00
29433;BME280;16405;53.964;13.448;2022-07-30T03:53:34;101417.25;;;13.89;100.00
29433;BME280;16405;53.964;13.448;2022-07-30T03:56:00;101416.66;;;14.02;100.00
29433;BME280;16405;53.964;13.448;2022-07-30T03:58:26;101420.63;;;14.10;100.00
29433;BME280;16405;53.964;13.448;2022-07-30T04:00:52;101412.81;;;14.25;100.00
29433;BME280;16405;53.964;13.448;2022-07-30T04:03:30;101415.63;;;14.39;100.00
29433;BME280;16405;53.964;13.448;2022-07-30T04:05:56;101419.06;;;14.59;100.00
29433;BME280;16405;53.964;13.448;2022-07-30T04:08:23;101418.25;;;14.74;100.00
29433;BME280;16405;53.964;13.448;2022-07-30T04:10:53;101429.03;;;15.36;100.00
29433;BME280;16405;53.964;13.448;2022-07-30T04:13:19;101430.28;;;16.67;100.00
29433;BME280;16405;53.964;13.448;2022-07-30T04:18:20;101436.53;;;18.72;85.17
29433;BME280;16405;53.964;13.448;2022-07-30T04:20:48;101451.25;;;19.90;78.64
29433;BME280;16405;53.964;13.448;2022-07-30T04:23:16;101446.53;;;21.55;71.54
29433;BME280;16405;53.964;13.448;2022-07-30T04:25:47;101439.69;;;22.99;65.41
29433;BME280;16405;53.964;13.448;2022-07-30T04:28:16;101451.84;;;23.84;61.99
29433;BME280;16405;53.964;13.448;2022-07-30T04:30:45;101449.00;;;25.29;58.79
29433;BME280;16405;53.964;13.448;2022-07-30T04:33:11;101456.28;;;25.46;57.47
29433;BME280;16405;53.964;13.448;2022-07-30T04:35:41;101465.16;;;26.02;55.92
29433;BME280;16405;53.964;13.448;2022-07-30T04:38:07;101472.16;;;26.13;55.26
29433;BME280;16405;53.964;13.448;2022-07-30T04:40:34;101467.84;;;27.67;52.21
29433;BME280;16405;53.964;13.448;2022-07-30T04:43:00;101471.03;;;29.02;49.23
29433;BME280;16405;53.964;13.448;2022-07-30T04:45:26;101480.91;;;30.43;47.28
29433;BME280;16405;53.964;13.448;2022-07-30T04:47:52;101474.50;;;30.59;45.38
29433;BME280;16405;53.964;13.448;2022-07-30T04:50:21;101475.22;;;29.92;45.65
29433;BME280;16405;53.964;13.448;2022-07-30T04:52:50;101488.59;;;29.93;45.63
29433;BME280;16405;53.964;13.448;2022-07-30T04:55:18;101489.41;;;29.71;45.15
29433;BME280;16405;53.964;13.448;2022-07-30T04:57:49;101487.91;;;29.29;45.70
29433;BME280;16405;53.964;13.448;2022-07-30T05:00:16;101488.34;;;28.93;46.32
29433;BME280;16405;53.964;13.448;2022-07-30T05:02:43;101501.75;;;30.51;43.86
29433;BME280;16405;53.964;13.448;2022-07-30T05:05:12;101492.72;;;31.03;42.65
29433;BME280;16405;53.964;13.448;2022-07-30T05:07:46;101500.78;;;30.43;42.00
29433;BME280;16405;53.964;13.448;2022-07-30T05:10:12;101508.03;;;31.04;41.87
29433;BME280;16405;53.964;13.448;2022-07-30T05:12:38;101503.72;;;30.57;42.40
29433;BME280;16405;53.964;13.448;2022-07-30T05:15:07;101499.56;;;28.73;44.71
29433;BME280;16405;53.964;13.448;2022-07-30T05:17:36;101495.88;;;26.45;49.75
29433;BME280;16405;53.964;13.448;2022-07-30T05:20:03;101492.16;;;24.72;53.53
29433;BME280;16405;53.964;13.448;2022-07-30T05:22:30;101491.28;;;23.74;56.45
29433;BME280;16405;53.964;13.448;2022-07-30T05:24:56;101488.25;;;22.65;59.50
29433;BME280;16405;53.964;13.448;2022-07-30T05:27:27;101495.88;;;22.81;59.54
29433;BME280;16405;53.964;13.448;2022-07-30T05:29:53;101496.72;;;22.40;60.50
29433;BME280;16405;53.964;13.448;2022-07-30T05:32:19;101492.91;;;22.63;60.27
29433;BME280;16405;53.964;13.448;2022-07-30T05:34:45;101490.69;;;22.47;60.87
29433;BME280;16405;53.964;13.448;2022-07-30T05:37:11;101492.78;;;22.65;60.47
29433;BME280;16405;53.964;13.448;2022-07-30T05:39:37;101491.47;;;23.01;59.58
29433;BME280;16405;53.964;13.448;2022-07-30T05:42:05;101490.09;;;22.86;59.73
29433;BME280;16405;53.964;13.448;2022-07-30T05:44:31;101504.84;;;22.70;60.48
29433;BME280;16405;53.964;13.448;2022-07-30T05:46:56;101503.56;;;22.96;60.11
29433;BME280;16405;53.964;13.448;2022-07-30T05:49:22;101493.59;;;23.38;58.72
29433;BME280;16405;53.964;13.448;2022-07-30T05:51:49;101491.38;;;23.63;57.84
29433;BME280;16405;53.964;13.448;2022-07-30T05:54:15;101493.72;;;23.77;57.18
29433;BME280;16405;53.964;13.448;2022-07-30T05:56:41;101499.16;;;24.26;56.29
29433;BME280;16405;53.964;13.448;2022-07-30T05:59:09;101504.56;;;25.02;54.75
29433;BME280;16405;53.964;13.448;2022-07-30T06:01:34;101499.63;;;25.63;52.86
29433;BME280;16405;53.964;13.448;2022-07-30T06:04:00;101488.75;;;25.27;52.82
29433;BME280;16405;53.964;13.448;2022-07-30T06:06:26;101488.00;;;25.34;52.91
29433;BME280;16405;53.964;13.448;2022-07-30T06:08:52;101490.94;;;25.41;52.05
29433;BME280;16405;53.964;13.448;2022-07-30T06:11:18;101502.44;;;25.43;52.10
29433;BME280;16405;53.964;13.448;2022-07-30T06:13:46;101508.47;;;25.55;52.01
29433;BME280;16405;53.964;13.448;2022-07-30T06:16:12;101499.03;;;25.41;52.18
29433;BME280;16405;53.964;13.448;2022-07-30T06:18:38;101508.34;;;25.74;51.83
29433;BME280;16405;53.964;13.448;2022-07-30T06:21:04;101518.28;;;25.74;51.87
29433;BME280;16405;53.964;13.448;2022-07-30T06:23:30;101512.03;;;25.55;51.67
29433;BME280;16405;53.964;13.448;2022-07-30T06:25:56;101509.75;;;24.76;52.95
29433;BME280;16405;53.964;13.448;2022-07-30T06:28:22;101510.44;;;24.78;53.37
29433;BME280;16405;53.964;13.448;2022-07-30T06:30:50;101509.22;;;24.53;53.65
29433;BME280;16405;53.964;13.448;2022-07-30T06:33:16;101500.56;;;23.91;54.78
29433;BME280;16405;53.964;13.448;2022-07-30T06:35:41;101506.19;;;23.88;54.93
29433;BME280;16405;53.964;13.448;2022-07-30T06:38:07;101501.47;;;23.70;55.46
29433;BME280;16405;53.964;13.448;2022-07-30T06:40:33;101505.53;;;23.14;55.94
29433;BME280;16405;53.964;13.448;2022-07-30T06:42:59;101505.53;;;23.14;56.46
29433;BME280;16405;53.964;13.448;2022-07-30T06:45:25;101507.50;;;23.12;56.53
29433;BME280;16405;53.964;13.448;2022-07-30T06:47:55;101510.31;;;22.90;57.10
29433;BME280;16405;53.964;13.448;2022-07-30T06:50:21;101507.16;;;22.85;57.46
29433;BME280;16405;53.964;13.448;2022-07-30T06:52:47;101501.75;;;22.75;57.75
29433;BME280;16405;53.964;13.448;2022-07-30T06:55:12;101499.66;;;22.58;57.78
29433;BME280;16405;53.964;13.448;2022-07-30T06:57:38;101506.19;;;22.23;58.62
29433;BME280;16405;53.964;13.448;2022-07-30T07:00:05;101507.97;;;21.90;59.38
29433;BME280;16405;53.964;13.448;2022-07-30T07:02:34;101506.88;;;21.81;60.23
29433;BME280;16405;53.964;13.448;2022-07-30T07:05:00;101501.78;;;21.78;60.30
29433;BME280;16405;53.964;13.448;2022-07-30T07:07:26;101503.94;;;21.96;60.53
29433;BME280;16405;53.964;13.448;2022-07-30T07:09:52;101496.94;;;22.04;60.29
29433;BME280;16405;53.964;13.448;2022-07-30T07:12:18;101496.91;;;22.27;60.08
29433;BME280;16405;53.964;13.448;2022-07-30T07:14:44;101481.19;;;22.43;59.80
29433;BME280;16405;53.964;13.448;2022-07-30T07:17:11;101488.81;;;22.59;59.34
29433;BME280;16405;53.964;13.448;2022-07-30T07:19:37;101488.13;;;22.88;59.25
29433;BME280;16405;53.964;13.448;2022-07-30T07:22:03;101485.13;;;23.43;58.39
29433;BME280;16405;53.964;13.448;2022-07-30T07:24:29;101490.38;;;23.44;57.82
29433;BME280;16405;53.964;13.448;2022-07-30T07:26:57;101486.38;;;23.39;57.59
29433;BME280;16405;53.964;13.448;2022-07-30T07:29:25;101484.34;;;23.21;58.48
29433;BME280;16405;53.964;13.448;2022-07-30T07:31:51;101489.47;;;23.34;57.18
29433;BME280;16405;53.964;13.448;2022-07-30T07:34:17;101487.31;;;23.68;56.34
29433;BME280;16405;53.964;13.448;2022-07-30T07:36:43;101491.97;;;23.57;56.58
29433;BME280;16405;53.964;13.448;2022-07-30T07:39:08;101491.91;;;23.87;56.33
29433;BME280;16405;53.964;13.448;2022-07-30T07:41:37;101492.34;;;23.52;55.42
29433;BME280;16405;53.964;13.448;2022-07-30T07:44:05;101487.13;;;23.50;56.50
29433;BME280;16405;53.964;13.448;2022-07-30T07:46:32;101497.19;;;24.08;55.38
29433;BME280;16405;53.964;13.448;2022-07-30T07:48:58;101499.69;;;24.78;54.07
29433;BME280;16405;53.964;13.448;2022-07-30T07:51:23;101499.06;;;24.94;53.84
29433;BME280;16405;53.964;13.448;2022-07-30T07:53:49;101492.00;;;24.83;54.37
29433;BME280;16405;53.964;13.448;2022-07-30T07:56:15;101501.16;;;25.37;53.73
29433;BME280;16405;53.964;13.448;2022-07-30T07:58:44;101494.00;;;25.28;53.46
29433;BME280;16405;53.964;13.448;2022-07-30T08:01:10;101501.22;;;25.28;53.12
29433;BME280;16405;53.964;13.448;2022-07-30T08:03:36;101506.03;;;25.34;53.68
29433;BME280;16405;53.964;13.448;2022-07-30T08:06:02;101518.81;;;25.60;53.23
29433;BME280;16405;53.964;13.448;2022-07-30T08:08:28;101523.59;;;25.93;51.57
29433;BME280;16405;53.964;13.448;2022-07-30T08:10:54;101516.34;;;26.30;50.49
29433;BME280;16405;53.964;13.448;2022-07-30T08:13:19;101519.91;;;25.85;50.59
29433;BME280;16405;53.964;13.448;2022-07-30T08:15:45;101520.50;;;26.60;50.02
29433;BME280;16405;53.964;13.448;2022-07-30T08:18:11;101513.91;;;27.07;49.00
29433;BME280;16405;53.964;13.448;2022-07-30T08:20:38;101514.56;;;27.35;48.63
29433;BME280;16405;53.964;13.448;2022-07-30T08:23:04;101525.00;;;27.30;47.58
29433;BME280;16405;53.964;13.448;2022-07-30T08:25:30;101520.84;;;27.94;47.28
29433;BME280;16405;53.964;13.448;2022-07-30T08:27:56;101520.69;;;27.88;47.35
29433;BME280;16405;53.964;13.448;2022-07-30T08:30:25;101524.63;;;28.01;46.78
29433;BME280;16405;53.964;13.448;2022-07-30T08:32:51;101519.31;;;26.80;48.50
29433;BME280;16405;53.964;13.448;2022-07-30T08:35:17;101524.47;;;27.69;47.55
29433;BME280;16405;53.964;13.448;2022-07-30T08:37:42;101527.59;;;27.82;47.02
29433;BME280;16405;53.964;13.448;2022-07-30T08:40:09;101531.56;;;28.12;46.38
29433;BME280;16405;53.964;13.448;2022-07-30T08:42:36;101531.06;;;28.17;46.32
29433;BME280;16405;53.964;13.448;2022-07-30T08:45:12;101538.84;;;28.28;46.86
29433;BME280;16405;53.964;13.448;2022-07-30T08:47:40;101533.81;;;27.32;47.98
29433;BME280;16405;53.964;13.448;2022-07-30T08:50:09;101526.81;;;27.55;47.90
29433;BME280;16405;53.964;13.448;2022-07-30T08:52:36;101534.84;;;27.05;48.67
29433;BME280;16405;53.964;13.448;2022-07-30T08:55:07;101538.91;;;26.83;48.29
29433;BME280;16405;53.964;13.448;2022-07-30T08:57:33;101535.19;;;26.39;48.68
29433;BME280;16405;53.964;13.448;2022-07-30T09:00:01;101532.31;;;26.05;48.92
29433;BME280;16405;53.964;13.448;2022-07-30T09:02:30;101518.13;;;25.57;49.10
29433;BME280;16405;53.964;13.448;2022-07-30T09:04:56;101521.59;;;25.68;50.03
29433;BME280;16405;53.964;13.448;2022-07-30T09:07:24;101515.44;;;25.75;49.99
29433;BME280;16405;53.964;13.448;2022-07-30T09:09:51;101517.50;;;25.91;49.52
29433;BME280;16405;53.964;13.448;2022-07-30T09:12:41;101512.84;;;25.28;49.96
29433;BME280;16405;53.964;13.448;2022-07-30T09:18:01;101516.50;;;25.37;50.76
29433;BME280;16405;53.964;13.448;2022-07-30T09:20:31;101511.16;;;25.55;49.91
29433;BME280;16405;53.964;13.448;2022-07-30T09:23:01;101525.19;;;25.86;49.55
29433;BME280;16405;53.964;13.448;2022-07-30T09:25:48;101527.59;;;25.62;50.11
29433;BME280;16405;53.964;13.448;2022-07-30T09:28:29;101519.63;;;25.42;49.85
29433;BME280;16405;53.964;13.448;2022-07-30T09:30:59;101521.69;;;25.48;49.86
29433;BME280;16405;53.964;13.448;2022-07-30T09:33:45;101514.75;;;25.46;49.70
29433;BME280;16405;53.964;13.448;2022-07-30T09:36:15;101510.22;;;25.46;50.77
29433;BME280;16405;53.964;13.448;2022-07-30T09:38:50;101509.47;;;25.54;49.64
29433;BME280;16405;53.964;13.448;2022-07-30T09:41:31;101509.88;;;25.31;49.47
29433;BME280;16405;53.964;13.448;2022-07-30T09:44:06;101515.47;;;25.48;48.79
29433;BME280;16405;53.964;13.448;2022-07-30T09:46:48;101521.34;;;25.61;48.16
29433;BME280;16405;53.964;13.448;2022-07-30T09:49:27;101518.25;;;25.56;48.11
29433;BME280;16405;53.964;13.448;2022-07-30T09:51:55;101521.41;;;25.79;47.43
29433;BME280;16405;53.964;13.448;2022-07-30T09:54:23;101520.28;;;26.17;46.70
29433;BME280;16405;53.964;13.448;2022-07-30T09:57:06;101521.69;;;26.39;46.38
29433;BME280;16405;53.964;13.448;2022-07-30T09:59:35;101522.59;;;26.48;47.43
29433;BME280;16405;53.964;13.448;2022-07-30T10:02:04;101524.06;;;26.07;47.21
29433;BME280;16405;53.964;13.448;2022-07-30T10:04:35;101523.50;;;25.57;48.73
29433;BME280;16405;53.964;13.448;2022-07-30T10:07:03;101524.00;;;26.16;48.82
29433;BME280;16405;53.964;13.448;2022-07-30T10:09:35;101518.28;;;26.02;47.84
29433;BME280;16405;53.964;13.448;2022-07-30T10:12:04;101517.41;;;26.37;47.89
29433;BME280;16405;53.964;13.448;2022-07-30T10:14:36;101536.16;;;26.56;47.26
29433;BME280;16405;53.964;13.448;2022-07-30T10:17:08;101540.88;;;26.54;46.52
29433;BME280;16405;53.964;13.448;2022-07-30T10:19:35;101527.31;;;25.92;47.88
29433;BME280;16405;53.964;13.448;2022-07-30T10:22:05;101520.81;;;26.21;47.35
29433;BME280;16405;53.964;13.448;2022-07-30T10:24:35;101530.41;;;26.33;46.72
29433;BME280;16405;53.964;13.448;2022-07-30T10:27:03;101525.22;;;26.40;46.84
29433;BME280;16405;53.964;13.448;2022-07-30T10:29:32;101527.06;;;26.22;46.69
29433;BME280;16405;53.964;13.448;2022-07-30T10:32:07;101535.94;;;26.14;46.97
29433;BME280;16405;53.964;13.448;2022-07-30T10:34:34;101531.63;;;26.03;47.12
29433;BME280;16405;53.964;13.448;2022-07-30T10:37:04;101527.44;;;26.09;46.73
29433;BME280;16405;53.964;13.448;2022-07-30T10:39:52;101533.94;;;26.34;46.02
29433;BME280;16405;53.964;13.448;2022-07-30T10:48:16;101527.63;;;26.07;47.80
29433;BME280;16405;53.964;13.448;2022-07-30T10:50:55;101532.63;;;26.02;47.49
29433;BME280;16405;53.964;13.448;2022-07-30T10:56:20;101505.41;;;25.68;47.83
29433;BME280;16405;53.964;13.448;2022-07-30T10:59:09;101516.25;;;25.86;48.01
29433;BME280;16405;53.964;13.448;2022-07-30T11:07:27;101525.38;;;25.20;47.21
29433;BME280;16405;53.964;13.448;2022-07-30T11:09:59;101513.94;;;25.35;47.87
29433;BME280;16405;53.964;13.448;2022-07-30T11:15:09;101520.81;;;25.57;47.57
29433;BME280;16405;53.964;13.448;2022-07-30T11:20:30;101533.78;;;25.99;46.59
29433;BME280;16405;53.964;13.448;2022-07-30T11:25:47;101536.44;;;26.71;44.75
29433;BME280;16405;53.964;13.448;2022-07-30T11:37:11;101531.25;;;26.78;44.06
29433;BME280;16405;53.964;13.448;2022-07-30T11:42:31;101519.97;;;26.56;44.63
29433;BME280;16405;53.964;13.448;2022-07-30T11:47:48;101530.69;;;26.66;44.35
29433;BME280;16405;53.964;13.448;2022-07-30T11:50:30;101525.81;;;25.98;44.47
29433;BME280;16405;53.964;13.448;2022-07-30T11:53:06;101525.50;;;26.37;44.89
29433;BME280;16405;53.964;13.448;2022-07-30T11:55:38;101523.38;;;26.23;44.29
29433;BME280;16405;53.964;13.448;2022-07-30T11:58:08;101531.78;;;26.37;44.43
29433;BME280;16405;53.964;13.448;2022-07-30T12:00:41;101526.44;;;26.28;44.35
29433;BME280;16405;53.964;13.448;2022-07-30T12:03:15;101524.13;;;26.51;43.56
29433;BME280;16405;53.964;13.448;2022-07-30T12:05:43;101528.97;;;26.65;43.26
29433;BME280;16405;53.964;13.448;2022-07-30T12:08:13;101535.31;;;26.56;42.80
29433;BME280;16405;53.964;13.448;2022-07-30T12:10:40;101531.38;;;26.50;43.02
29433;BME280;16405;53.964;13.448;2022-07-30T12:13:15;101534.53;;;26.46;42.85
29433;BME280;16405;53.964;13.448;2022-07-30T12:15:44;101544.88;;;26.68;42.17
29433;BME280;16405;53.964;13.448;2022-07-30T12:18:12;101541.19;;;26.33;41.55
29433;BME280;16405;53.964;13.448;2022-07-30T12:20:42;101545.25;;;26.55;42.20
29433;BME280;16405;53.964;13.448;2022-07-30T12:23:13;101543.09;;;26.41;42.29
29433;BME280;16405;53.964;13.448;2022-07-30T12:25:41;101546.50;;;26.43;42.05
29433;BME280;16405;53.964;13.448;2022-07-30T12:28:24;101532.06;;;26.34;42.95
29433;BME280;16405;53.964;13.448;2022-07-30T12:30:52;101536.31;;;26.37;43.16
29433;BME280;16405;53.964;13.448;2022-07-30T12:33:19;101538.19;;;26.54;42.61
29433;BME280;16405;53.964;13.448;2022-07-30T12:36:02;101539.88;;;26.19;43.17
29433;BME280;16405;53.964;13.448;2022-07-30T12:38:28;101541.66;;;26.47;43.47
29433;BME280;16405;53.964;13.448;2022-07-30T12:41:02;101546.34;;;26.80;42.77
29433;BME280;16405;53.964;13.448;2022-07-30T12:43:51;101552.72;;;26.79;41.38
29433;BME280;16405;53.964;13.448;2022-07-30T12:46:20;101536.56;;;26.08;42.43
29433;BME280;16405;53.964;13.448;2022-07-30T12:48:57;101546.09;;;26.02;41.57
29433;BME280;16405;53.964;13.448;2022-07-30T12:51:30;101537.72;;;26.05;42.14
29433;BME280;16405;53.964;13.448;2022-07-30T12:54:06;101536.56;;;26.44;41.09
29433;BME280;16405;53.964;13.448;2022-07-30T12:56:38;101538.00;;;26.74;41.04
29433;BME280;16405;53.964;13.448;2022-07-30T12:59:20;101541.16;;;26.69;40.20
29433;BME280;16405;53.964;13.448;2022-07-30T13:01:46;101542.19;;;26.68;41.10
29433;BME280;16405;53.964;13.448;2022-07-30T13:04:14;101534.97;;;27.03;41.24
29433;BME280;16405;53.964;13.448;2022-07-30T13:06:40;101535.75;;;26.95;40.27
29433;BME280;16405;53.964;13.448;2022-07-30T13:09:20;101529.47;;;26.87;39.22
29433;BME280;16405;53.964;13.448;2022-07-30T13:11:47;101528.81;;;26.85;39.50
29433;BME280;16405;53.964;13.448;2022-07-30T13:14:14;101527.72;;;27.04;40.32
29433;BME280;16405;53.964;13.448;2022-07-30T13:16:41;101534.44;;;27.26;40.08
29433;BME280;16405;53.964;13.448;2022-07-30T13:19:10;101534.00;;;27.04;40.48
29433;BME280;16405;53.964;13.448;2022-07-30T13:21:37;101526.97;;;27.19;40.96
29433;BME280;16405;53.964;13.448;2022-07-30T13:24:04;101528.66;;;27.20;40.68
29433;BME280;16405;53.964;13.448;2022-07-30T13:26:30;101527.72;;;27.30;40.34
29433;BME280;16405;53.964;13.448;2022-07-30T13:28:57;101521.00;;;27.42;40.46
29433;BME280;16405;53.964;13.448;2022-07-30T13:31:23;101524.69;;;27.33;40.77
29433;BME280;16405;53.964;13.448;2022-07-30T13:33:50;101524.53;;;27.08;40.24
29433;BME280;16405;53.964;13.448;2022-07-30T13:36:19;101521.16;;;27.32;41.38